sensor_id;sensor_type;location;lat;lon;timestamp;P1;durP1;ratioP1;P2;durP2;ratioP2
16093;SDS011;8151;47.824;12.092;2023-11-21T00:01:01;6.47;;;1.37;;
16093;SDS011;8151;47.824;12.092;2023-11-21T00:03:30;6.50;;;1.10;;
16093;SDS011;8151;47.824;12.092;2023-11-21T00:05:59;3.87;;;1.47;;
16093;SDS011;8151;47.824;12.092;2023-11-21T00:08:30;3.80;;;1.03;;
16093;SDS011;8151;47.824;12.092;2023-11-21T00:10:58;4.93;;;1.40;;
16093;SDS011;8151;47.824;12.092;2023-11-21T00:13:27;4.00;;;1.10;;
16093;SDS011;8151;47.824;12.092;2023-11-21T00:15:55;4.07;;;1.30;;
16093;SDS011;8151;47.824;12.092;2023-11-21T00:18:24;3.27;;;1.20;;
16093;SDS011;8151;47.824;12.092;2023-11-21T00:20:52;3.07;;;1.07;;
16093;SDS011;8151;47.824;12.092;2023-11-21T00:23:21;4.53;;;1.60;;
16093;SDS011;8151;47.824;12.092;2023-11-21T00:25:51;1.53;;;0.90;;
16093;SDS011;8151;47.824;12.092;2023-11-21T00:28:19;6.17;;;1.30;;
16093;SDS011;8151;47.824;12.092;2023-11-21T00:30:49;4.13;;;1.63;;
16093;SDS011;8151;47.824;12.092;2023-11-21T00:33:17;3.27;;;2.30;;
16093;SDS011;8151;47.824;12.092;2023-11-21T00:35:46;3.40;;;2.60;;
16093;SDS011;8151;47.824;12.092;2023-11-21T00:38:15;3.50;;;2.60;;
16093;SDS011;8151;47.824;12.092;2023-11-21T00:40:46;4.57;;;2.70;;
16093;SDS011;8151;47.824;12.092;2023-11-21T00:43:16;6.13;;;2.83;;
16093;SDS011;8151;47.824;12.092;2023-11-21T00:45:44;3.33;;;2.37;;
16093;SDS011;8151;47.824;12.092;2023-11-21T00:48:16;5.27;;;3.03;;
16093;SDS011;8151;47.824;12.092;2023-11-21T00:50:44;6.07;;;2.43;;
16093;SDS011;8151;47.824;12.092;2023-11-21T00:53:13;4.40;;;2.77;;
16093;SDS011;8151;47.824;12.092;2023-11-21T00:55:41;6.20;;;2.70;;
16093;SDS011;8151;47.824;12.092;2023-11-21T00:58:10;4.03;;;2.70;;
16093;SDS011;8151;47.824;12.092;2023-11-21T01:00:39;3.50;;;2.77;;
16093;SDS011;8151;47.824;12.092;2023-11-21T01:03:08;5.07;;;2.90;;
16093;SDS011;8151;47.824;12.092;2023-11-21T01:05:36;5.63;;;2.73;;
16093;SDS011;8151;47.824;12.092;2023-11-21T01:08:05;5.47;;;2.50;;
16093;SDS011;8151;47.824;12.092;2023-11-21T01:10:33;6.23;;;3.00;;
16093;SDS011;8151;47.824;12.092;2023-11-21T01:13:03;4.93;;;2.57;;
16093;SDS011;8151;47.824;12.092;2023-11-21T01:15:32;5.13;;;2.60;;
16093;SDS011;8151;47.824;12.092;2023-11-21T01:18:02;3.67;;;2.80;;
16093;SDS011;8151;47.824;12.092;2023-11-21T01:20:31;3.83;;;2.83;;
16093;SDS011;8151;47.824;12.092;2023-11-21T01:22:59;4.87;;;2.80;;
16093;SDS011;8151;47.824;12.092;2023-11-21T01:25:28;3.57;;;2.53;;
16093;SDS011;8151;47.824;12.092;2023-11-21T01:27:56;5.03;;;2.83;;
16093;SDS011;8151;47.824;12.092;2023-11-21T01:30:25;3.13;;;2.80;;
16093;SDS011;8151;47.824;12.092;2023-11-21T01:32:53;5.20;;;3.20;;
16093;SDS011;8151;47.824;12.092;2023-11-21T01:35:23;4.47;;;3.43;;
16093;SDS011;8151;47.824;12.092;2023-11-21T01:37:51;4.47;;;3.13;;
16093;SDS011;8151;47.824;12.092;2023-11-21T01:40:20;6.53;;;3.23;;
16093;SDS011;8151;47.824;12.092;2023-11-21T01:42:49;10.33;;;3.30;;
16093;SDS011;8151;47.824;12.092;2023-11-21T01:45:17;6.40;;;3.47;;
16093;SDS011;8151;47.824;12.092;2023-11-21T01:47:45;5.50;;;3.07;;
16093;SDS011;8151;47.824;12.092;2023-11-21T01:50:15;5.90;;;3.20;;
16093;SDS011;8151;47.824;12.092;2023-11-21T01:52:46;4.07;;;3.13;;
16093;SDS011;8151;47.824;12.092;2023-11-21T01:55:16;5.57;;;3.27;;
16093;SDS011;8151;47.824;12.092;2023-11-21T01:57:54;5.37;;;3.43;;
16093;SDS011;8151;47.824;12.092;2023-11-21T02:00:24;3.70;;;3.13;;
16093;SDS011;8151;47.824;12.092;2023-11-21T02:02:55;3.87;;;3.30;;
16093;SDS011;8151;47.824;12.092;2023-11-21T02:05:24;3.80;;;3.17;;
16093;SDS011;8151;47.824;12.092;2023-11-21T02:07:54;4.57;;;3.00;;
16093;SDS011;8151;47.824;12.092;2023-11-21T02:10:23;4.70;;;3.10;;
16093;SDS011;8151;47.824;12.092;2023-11-21T02:12:52;5.03;;;3.47;;
16093;SDS011;8151;47.824;12.092;2023-11-21T02:15:22;5.00;;;3.50;;
16093;SDS011;8151;47.824;12.092;2023-11-21T02:17:53;5.23;;;3.40;;
16093;SDS011;8151;47.824;12.092;2023-11-21T02:20:25;6.07;;;3.50;;
16093;SDS011;8151;47.824;12.092;2023-11-21T02:22:57;4.40;;;3.30;;
16093;SDS011;8151;47.824;12.092;2023-11-21T02:25:27;5.50;;;3.87;;
16093;SDS011;8151;47.824;12.092;2023-11-21T02:27:57;5.53;;;3.63;;
16093;SDS011;8151;47.824;12.092;2023-11-21T02:30:26;6.47;;;3.53;;
16093;SDS011;8151;47.824;12.092;2023-11-21T02:32:55;4.40;;;3.80;;
16093;SDS011;8151;47.824;12.092;2023-11-21T02:35:25;4.37;;;3.30;;
16093;SDS011;8151;47.824;12.092;2023-11-21T02:37:53;6.57;;;3.73;;
16093;SDS011;8151;47.824;12.092;2023-11-21T02:40:24;4.70;;;3.80;;
16093;SDS011;8151;47.824;12.092;2023-11-21T02:42:54;3.93;;;3.53;;
16093;SDS011;8151;47.824;12.092;2023-11-21T02:45:26;8.23;;;3.80;;
16093;SDS011;8151;47.824;12.092;2023-11-21T02:47:54;5.30;;;3.97;;
16093;SDS011;8151;47.824;12.092;2023-11-21T02:50:24;6.63;;;3.73;;
16093;SDS011;8151;47.824;12.092;2023-11-21T02:52:52;6.07;;;4.03;;
16093;SDS011;8151;47.824;12.092;2023-11-21T02:55:21;4.83;;;3.60;;
16093;SDS011;8151;47.824;12.092;2023-11-21T02:57:53;5.30;;;4.00;;
16093;SDS011;8151;47.824;12.092;2023-11-21T03:00:23;4.80;;;4.10;;
16093;SDS011;8151;47.824;12.092;2023-11-21T03:02:53;6.60;;;3.80;;
16093;SDS011;8151;47.824;12.092;2023-11-21T03:05:23;4.63;;;3.33;;
16093;SDS011;8151;47.824;12.092;2023-11-21T03:07:52;4.37;;;3.37;;
16093;SDS011;8151;47.824;12.092;2023-11-21T03:10:20;7.63;;;3.80;;
16093;SDS011;8151;47.824;12.092;2023-11-21T03:12:50;5.00;;;4.03;;
16093;SDS011;8151;47.824;12.092;2023-11-21T03:15:20;6.80;;;4.07;;
16093;SDS011;8151;47.824;12.092;2023-11-21T03:17:49;5.93;;;3.93;;
16093;SDS011;8151;47.824;12.092;2023-11-21T03:20:17;6.37;;;4.50;;
16093;SDS011;8151;47.824;12.092;2023-11-21T03:22:46;4.77;;;4.07;;
16093;SDS011;8151;47.824;12.092;2023-11-21T03:25:14;4.70;;;4.13;;
16093;SDS011;8151;47.824;12.092;2023-11-21T03:27:44;5.20;;;4.30;;
16093;SDS011;8151;47.824;12.092;2023-11-21T03:30:13;4.90;;;3.97;;
16093;SDS011;8151;47.824;12.092;2023-11-21T03:32:43;6.10;;;4.30;;
16093;SDS011;8151;47.824;12.092;2023-11-21T03:35:11;7.40;;;3.97;;
16093;SDS011;8151;47.824;12.092;2023-11-21T03:37:40;5.60;;;4.20;;
16093;SDS011;8151;47.824;12.092;2023-11-21T03:40:10;5.60;;;4.43;;
16093;SDS011;8151;47.824;12.092;2023-11-21T03:42:39;4.70;;;3.77;;
16093;SDS011;8151;47.824;12.092;2023-11-21T03:45:08;6.10;;;3.93;;
16093;SDS011;8151;47.824;12.092;2023-11-21T03:47:40;7.40;;;4.20;;
16093;SDS011;8151;47.824;12.092;2023-11-21T03:50:10;6.00;;;4.17;;
16093;SDS011;8151;47.824;12.092;2023-11-21T03:52:39;7.87;;;4.17;;
16093;SDS011;8151;47.824;12.092;2023-11-21T03:55:07;4.93;;;3.97;;
16093;SDS011;8151;47.824;12.092;2023-11-21T03:57:37;5.37;;;4.10;;
16093;SDS011;8151;47.824;12.092;2023-11-21T04:00:06;4.47;;;3.67;;
16093;SDS011;8151;47.824;12.092;2023-11-21T04:02:37;5.43;;;4.10;;
16093;SDS011;8151;47.824;12.092;2023-11-21T04:05:08;9.10;;;4.07;;
16093;SDS011;8151;47.824;12.092;2023-11-21T04:07:36;5.33;;;3.70;;
16093;SDS011;8151;47.824;12.092;2023-11-21T04:10:07;5.40;;;3.77;;
16093;SDS011;8151;47.824;12.092;2023-11-21T04:12:37;4.23;;;3.83;;
16093;SDS011;8151;47.824;12.092;2023-11-21T04:15:06;5.33;;;4.00;;
16093;SDS011;8151;47.824;12.092;2023-11-21T04:17:36;4.87;;;3.47;;
16093;SDS011;8151;47.824;12.092;2023-11-21T04:20:05;5.67;;;3.70;;
16093;SDS011;8151;47.824;12.092;2023-11-21T04:22:37;4.37;;;3.40;;
16093;SDS011;8151;47.824;12.092;2023-11-21T04:25:09;4.57;;;3.43;;
16093;SDS011;8151;47.824;12.092;2023-11-21T04:27:39;5.07;;;3.83;;
16093;SDS011;8151;47.824;12.092;2023-11-21T04:30:08;9.50;;;3.93;;
16093;SDS011;8151;47.824;12.092;2023-11-21T04:32:37;5.03;;;3.40;;
16093;SDS011;8151;47.824;12.092;2023-11-21T04:35:08;7.33;;;5.20;;
16093;SDS011;8151;47.824;12.092;2023-11-21T04:37:37;5.83;;;4.30;;
16093;SDS011;8151;47.824;12.092;2023-11-21T04:40:06;6.60;;;4.03;;
16093;SDS011;8151;47.824;12.092;2023-11-21T04:42:35;6.80;;;3.40;;
16093;SDS011;8151;47.824;12.092;2023-11-21T04:45:04;6.60;;;3.77;;
16093;SDS011;8151;47.824;12.092;2023-11-21T04:47:36;5.50;;;3.57;;
16093;SDS011;8151;47.824;12.092;2023-11-21T04:50:05;4.03;;;3.63;;
16093;SDS011;8151;47.824;12.092;2023-11-21T04:52:36;5.03;;;3.60;;
16093;SDS011;8151;47.824;12.092;2023-11-21T04:55:04;4.27;;;3.83;;
16093;SDS011;8151;47.824;12.092;2023-11-21T04:57:37;5.17;;;3.77;;
16093;SDS011;8151;47.824;12.092;2023-11-21T05:00:09;5.37;;;4.23;;
16093;SDS011;8151;47.824;12.092;2023-11-21T05:02:38;5.53;;;4.03;;
16093;SDS011;8151;47.824;12.092;2023-11-21T05:05:07;5.87;;;3.87;;
16093;SDS011;8151;47.824;12.092;2023-11-21T05:07:39;8.90;;;4.93;;
16093;SDS011;8151;47.824;12.092;2023-11-21T05:10:08;4.47;;;3.80;;
16093;SDS011;8151;47.824;12.092;2023-11-21T05:12:39;8.83;;;5.47;;
16093;SDS011;8151;47.824;12.092;2023-11-21T05:15:09;12.30;;;6.43;;
16093;SDS011;8151;47.824;12.092;2023-11-21T05:17:40;5.57;;;4.33;;
16093;SDS011;8151;47.824;12.092;2023-11-21T05:20:10;7.50;;;4.73;;
16093;SDS011;8151;47.824;12.092;2023-11-21T05:22:42;6.60;;;5.00;;
16093;SDS011;8151;47.824;12.092;2023-11-21T05:25:11;8.07;;;5.17;;
16093;SDS011;8151;47.824;12.092;2023-11-21T05:27:39;10.90;;;5.73;;
16093;SDS011;8151;47.824;12.092;2023-11-21T05:30:08;8.13;;;5.20;;
16093;SDS011;8151;47.824;12.092;2023-11-21T05:32:39;5.80;;;4.20;;
16093;SDS011;8151;47.824;12.092;2023-11-21T05:35:09;8.00;;;4.53;;
16093;SDS011;8151;47.824;12.092;2023-11-21T05:37:43;13.60;;;10.27;;
16093;SDS011;8151;47.824;12.092;2023-11-21T05:40:12;6.33;;;5.70;;
16093;SDS011;8151;47.824;12.092;2023-11-21T05:42:41;10.97;;;8.17;;
16093;SDS011;8151;47.824;12.092;2023-11-21T05:45:09;14.00;;;9.77;;
16093;SDS011;8151;47.824;12.092;2023-11-21T05:47:40;8.57;;;7.63;;
16093;SDS011;8151;47.824;12.092;2023-11-21T05:50:10;5.40;;;4.80;;
16093;SDS011;8151;47.824;12.092;2023-11-21T05:52:42;8.90;;;5.67;;
16093;SDS011;8151;47.824;12.092;2023-11-21T05:55:13;8.77;;;5.53;;
16093;SDS011;8151;47.824;12.092;2023-11-21T05:57:42;7.93;;;5.63;;
16093;SDS011;8151;47.824;12.092;2023-11-21T06:00:12;7.43;;;5.67;;
16093;SDS011;8151;47.824;12.092;2023-11-21T06:02:47;8.17;;;5.40;;
16093;SDS011;8151;47.824;12.092;2023-11-21T06:05:17;9.30;;;5.50;;
16093;SDS011;8151;47.824;12.092;2023-11-21T06:07:48;7.33;;;4.83;;
16093;SDS011;8151;47.824;12.092;2023-11-21T06:10:16;6.30;;;5.40;;
16093;SDS011;8151;47.824;12.092;2023-11-21T06:12:46;6.97;;;5.07;;
16093;SDS011;8151;47.824;12.092;2023-11-21T06:15:15;6.00;;;4.37;;
16093;SDS011;8151;47.824;12.092;2023-11-21T06:17:46;7.90;;;4.30;;
16093;SDS011;8151;47.824;12.092;2023-11-21T06:20:19;8.07;;;4.67;;
16093;SDS011;8151;47.824;12.092;2023-11-21T06:22:49;6.30;;;5.03;;
16093;SDS011;8151;47.824;12.092;2023-11-21T06:25:18;5.83;;;4.50;;
16093;SDS011;8151;47.824;12.092;2023-11-21T06:27:47;10.77;;;4.50;;
16093;SDS011;8151;47.824;12.092;2023-11-21T06:30:16;9.37;;;4.20;;
16093;SDS011;8151;47.824;12.092;2023-11-21T06:32:47;7.37;;;4.17;;
16093;SDS011;8151;47.824;12.092;2023-11-21T06:35:16;6.70;;;4.10;;
16093;SDS011;8151;47.824;12.092;2023-11-21T06:37:45;7.57;;;3.87;;
16093;SDS011;8151;47.824;12.092;2023-11-21T06:40:17;6.23;;;3.53;;
16093;SDS011;8151;47.824;12.092;2023-11-21T06:42:47;6.73;;;3.83;;
16093;SDS011;8151;47.824;12.092;2023-11-21T06:45:17;5.83;;;4.07;;
16093;SDS011;8151;47.824;12.092;2023-11-21T06:47:47;4.20;;;3.50;;
16093;SDS011;8151;47.824;12.092;2023-11-21T06:50:18;4.83;;;3.60;;
16093;SDS011;8151;47.824;12.092;2023-11-21T06:52:47;3.90;;;2.97;;
16093;SDS011;8151;47.824;12.092;2023-11-21T06:55:17;5.47;;;2.80;;
16093;SDS011;8151;47.824;12.092;2023-11-21T06:57:46;3.63;;;2.80;;
16093;SDS011;8151;47.824;12.092;2023-11-21T07:00:15;6.73;;;3.53;;
16093;SDS011;8151;47.824;12.092;2023-11-21T07:02:45;5.73;;;4.20;;
16093;SDS011;8151;47.824;12.092;2023-11-21T07:05:14;7.87;;;4.53;;
16093;SDS011;8151;47.824;12.092;2023-11-21T07:07:47;9.23;;;4.60;;
16093;SDS011;8151;47.824;12.092;2023-11-21T07:10:18;5.30;;;3.93;;
16093;SDS011;8151;47.824;12.092;2023-11-21T07:12:46;4.67;;;3.53;;
16093;SDS011;8151;47.824;12.092;2023-11-21T07:15:15;5.30;;;3.53;;
16093;SDS011;8151;47.824;12.092;2023-11-21T07:17:43;6.47;;;3.57;;
16093;SDS011;8151;47.824;12.092;2023-11-21T07:20:11;7.90;;;3.77;;
16093;SDS011;8151;47.824;12.092;2023-11-21T07:22:40;15.60;;;4.67;;
16093;SDS011;8151;47.824;12.092;2023-11-21T07:25:09;21.30;;;6.63;;
16093;SDS011;8151;47.824;12.092;2023-11-21T07:27:39;16.17;;;5.63;;
16093;SDS011;8151;47.824;12.092;2023-11-21T07:30:07;34.10;;;7.23;;
16093;SDS011;8151;47.824;12.092;2023-11-21T07:32:37;22.73;;;6.50;;
16093;SDS011;8151;47.824;12.092;2023-11-21T07:35:07;14.23;;;6.13;;
16093;SDS011;8151;47.824;12.092;2023-11-21T07:37:37;12.90;;;6.47;;
16093;SDS011;8151;47.824;12.092;2023-11-21T07:40:06;7.60;;;5.53;;
16093;SDS011;8151;47.824;12.092;2023-11-21T07:42:39;9.33;;;5.80;;
16093;SDS011;8151;47.824;12.092;2023-11-21T07:45:09;13.27;;;5.37;;
16093;SDS011;8151;47.824;12.092;2023-11-21T07:47:38;11.03;;;4.97;;
16093;SDS011;8151;47.824;12.092;2023-11-21T07:50:08;9.10;;;4.40;;
16093;SDS011;8151;47.824;12.092;2023-11-21T07:52:37;6.37;;;4.37;;
16093;SDS011;8151;47.824;12.092;2023-11-21T07:55:06;6.40;;;3.97;;
16093;SDS011;8151;47.824;12.092;2023-11-21T07:57:35;6.23;;;4.07;;
16093;SDS011;8151;47.824;12.092;2023-11-21T08:00:05;5.77;;;3.87;;
16093;SDS011;8151;47.824;12.092;2023-11-21T08:02:36;4.57;;;3.77;;
16093;SDS011;8151;47.824;12.092;2023-11-21T08:05:05;5.83;;;3.87;;
16093;SDS011;8151;47.824;12.092;2023-11-21T08:07:41;6.77;;;4.10;;
16093;SDS011;8151;47.824;12.092;2023-11-21T08:10:10;10.27;;;4.23;;
16093;SDS011;8151;47.824;12.092;2023-11-21T08:12:38;6.80;;;4.53;;
16093;SDS011;8151;47.824;12.092;2023-11-21T08:15:08;5.53;;;4.47;;
16093;SDS011;8151;47.824;12.092;2023-11-21T08:17:37;7.13;;;4.50;;
16093;SDS011;8151;47.824;12.092;2023-11-21T08:20:06;15.03;;;9.80;;
16093;SDS011;8151;47.824;12.092;2023-11-21T08:22:38;13.97;;;7.43;;
16093;SDS011;8151;47.824;12.092;2023-11-21T08:25:08;10.03;;;5.70;;
16093;SDS011;8151;47.824;12.092;2023-11-21T08:27:36;8.87;;;5.17;;
16093;SDS011;8151;47.824;12.092;2023-11-21T08:30:05;9.60;;;5.13;;
16093;SDS011;8151;47.824;12.092;2023-11-21T08:32:36;8.73;;;5.47;;
16093;SDS011;8151;47.824;12.092;2023-11-21T08:35:07;8.47;;;4.63;;
16093;SDS011;8151;47.824;12.092;2023-11-21T08:37:36;6.23;;;3.93;;
16093;SDS011;8151;47.824;12.092;2023-11-21T08:40:06;6.00;;;3.13;;
16093;SDS011;8151;47.824;12.092;2023-11-21T08:42:36;4.03;;;2.87;;
16093;SDS011;8151;47.824;12.092;2023-11-21T08:45:05;6.87;;;2.23;;
16093;SDS011;8151;47.824;12.092;2023-11-21T08:47:37;1.60;;;1.50;;
16093;SDS011;8151;47.824;12.092;2023-11-21T08:50:06;2.73;;;1.60;;
16093;SDS011;8151;47.824;12.092;2023-11-21T08:52:35;3.47;;;1.30;;
16093;SDS011;8151;47.824;12.092;2023-11-21T08:55:05;1.33;;;0.80;;
16093;SDS011;8151;47.824;12.092;2023-11-21T08:57:35;2.63;;;0.80;;
16093;SDS011;8151;47.824;12.092;2023-11-21T09:00:05;0.93;;;0.60;;
16093;SDS011;8151;47.824;12.092;2023-11-21T09:02:38;1.47;;;1.00;;
16093;SDS011;8151;47.824;12.092;2023-11-21T09:05:09;1.70;;;1.20;;
16093;SDS011;8151;47.824;12.092;2023-11-21T09:07:39;2.33;;;1.00;;
16093;SDS011;8151;47.824;12.092;2023-11-21T09:10:09;0.87;;;0.50;;
16093;SDS011;8151;47.824;12.092;2023-11-21T09:12:38;0.93;;;0.67;;
16093;SDS011;8151;47.824;12.092;2023-11-21T09:15:07;2.00;;;0.50;;
16093;SDS011;8151;47.824;12.092;2023-11-21T09:17:40;1.03;;;0.40;;
16093;SDS011;8151;47.824;12.092;2023-11-21T09:20:10;0.87;;;0.57;;
16093;SDS011;8151;47.824;12.092;2023-11-21T09:22:39;1.30;;;0.30;;
16093;SDS011;8151;47.824;12.092;2023-11-21T09:25:07;1.17;;;0.37;;
16093;SDS011;8151;47.824;12.092;2023-11-21T09:27:36;1.13;;;0.27;;
16093;SDS011;8151;47.824;12.092;2023-11-21T09:30:05;0.10;;;0.10;;
16093;SDS011;8151;47.824;12.092;2023-11-21T09:32:37;0.43;;;0.40;;
16093;SDS011;8151;47.824;12.092;2023-11-21T09:35:08;1.70;;;0.33;;
16093;SDS011;8151;47.824;12.092;2023-11-21T09:37:38;0.70;;;0.37;;
16093;SDS011;8151;47.824;12.092;2023-11-21T09:40:08;0.20;;;0.20;;
16093;SDS011;8151;47.824;12.092;2023-11-21T09:42:40;1.23;;;0.60;;
16093;SDS011;8151;47.824;12.092;2023-11-21T09:45:17;0.40;;;0.40;;
16093;SDS011;8151;47.824;12.092;2023-11-21T09:47:52;0.50;;;0.50;;
16093;SDS011;8151;47.824;12.092;2023-11-21T09:50:21;0.63;;;0.47;;
16093;SDS011;8151;47.824;12.092;2023-11-21T09:52:54;1.20;;;0.53;;
16093;SDS011;8151;47.824;12.092;2023-11-21T09:55:27;0.93;;;0.43;;
16093;SDS011;8151;47.824;12.092;2023-11-21T09:57:57;0.67;;;0.30;;
16093;SDS011;8151;47.824;12.092;2023-11-21T10:00:28;0.93;;;0.40;;
16093;SDS011;8151;47.824;12.092;2023-11-21T10:03:01;0.37;;;0.27;;
16093;SDS011;8151;47.824;12.092;2023-11-21T10:05:30;0.67;;;0.20;;
16093;SDS011;8151;47.824;12.092;2023-11-21T10:08:01;0.30;;;0.20;;
16093;SDS011;8151;47.824;12.092;2023-11-21T10:10:30;1.03;;;0.27;;
16093;SDS011;8151;47.824;12.092;2023-11-21T10:13:02;1.50;;;0.30;;
16093;SDS011;8151;47.824;12.092;2023-11-21T10:15:33;0.90;;;0.30;;
16093;SDS011;8151;47.824;12.092;2023-11-21T10:18:04;0.30;;;0.30;;
16093;SDS011;8151;47.824;12.092;2023-11-21T10:20:36;0.83;;;0.43;;
16093;SDS011;8151;47.824;12.092;2023-11-21T10:23:05;0.93;;;0.47;;
16093;SDS011;8151;47.824;12.092;2023-11-21T10:25:34;0.30;;;0.30;;
16093;SDS011;8151;47.824;12.092;2023-11-21T10:28:04;0.20;;;0.20;;
16093;SDS011;8151;47.824;12.092;2023-11-21T10:30:34;0.73;;;0.30;;
16093;SDS011;8151;47.824;12.092;2023-11-21T10:33:06;1.33;;;0.20;;
16093;SDS011;8151;47.824;12.092;2023-11-21T10:35:39;0.70;;;0.40;;
16093;SDS011;8151;47.824;12.092;2023-11-21T10:38:14;3.00;;;0.80;;
16093;SDS011;8151;47.824;12.092;2023-11-21T10:40:43;0.63;;;0.37;;
16093;SDS011;8151;47.824;12.092;2023-11-21T10:43:13;3.20;;;0.60;;
16093;SDS011;8151;47.824;12.092;2023-11-21T10:45:43;1.37;;;0.70;;
16093;SDS011;8151;47.824;12.092;2023-11-21T10:48:14;2.30;;;0.80;;
16093;SDS011;8151;47.824;12.092;2023-11-21T10:50:43;1.13;;;0.70;;
16093;SDS011;8151;47.824;12.092;2023-11-21T10:53:13;1.13;;;0.70;;
16093;SDS011;8151;47.824;12.092;2023-11-21T10:55:42;0.60;;;0.60;;
16093;SDS011;8151;47.824;12.092;2023-11-21T10:58:13;1.20;;;0.80;;
16093;SDS011;8151;47.824;12.092;2023-11-21T11:00:42;1.80;;;0.70;;
16093;SDS011;8151;47.824;12.092;2023-11-21T11:03:14;0.30;;;0.30;;
16093;SDS011;8151;47.824;12.092;2023-11-21T11:05:44;1.43;;;0.93;;
16093;SDS011;8151;47.824;12.092;2023-11-21T11:08:20;2.33;;;0.67;;
16093;SDS011;8151;47.824;12.092;2023-11-21T11:10:54;1.13;;;0.73;;
16093;SDS011;8151;47.824;12.092;2023-11-21T11:13:25;5.53;;;0.70;;
16093;SDS011;8151;47.824;12.092;2023-11-21T11:15:58;0.70;;;0.70;;
16093;SDS011;8151;47.824;12.092;2023-11-21T11:18:30;3.60;;;0.43;;
16093;SDS011;8151;47.824;12.092;2023-11-21T11:21:00;0.50;;;0.33;;
16093;SDS011;8151;47.824;12.092;2023-11-21T11:23:43;0.97;;;0.40;;
16093;SDS011;8151;47.824;12.092;2023-11-21T11:26:28;1.07;;;0.40;;
16093;SDS011;8151;47.824;12.092;2023-11-21T11:29:07;3.07;;;1.00;;
16093;SDS011;8151;47.824;12.092;2023-11-21T11:31:46;1.40;;;1.00;;
16093;SDS011;8151;47.824;12.092;2023-11-21T11:34:26;1.20;;;0.90;;
16093;SDS011;8151;47.824;12.092;2023-11-21T11:37:00;0.93;;;0.40;;
16093;SDS011;8151;47.824;12.092;2023-11-21T11:39:31;2.83;;;0.80;;
16093;SDS011;8151;47.824;12.092;2023-11-21T11:42:04;1.07;;;0.57;;
16093;SDS011;8151;47.824;12.092;2023-11-21T11:44:47;0.70;;;0.70;;
16093;SDS011;8151;47.824;12.092;2023-11-21T11:47:22;0.90;;;0.90;;
16093;SDS011;8151;47.824;12.092;2023-11-21T11:50:00;1.10;;;1.00;;
16093;SDS011;8151;47.824;12.092;2023-11-21T11:52:35;1.47;;;0.80;;
16093;SDS011;8151;47.824;12.092;2023-11-21T11:55:06;2.03;;;1.30;;
16093;SDS011;8151;47.824;12.092;2023-11-21T11:57:38;1.73;;;0.73;;
16093;SDS011;8151;47.824;12.092;2023-11-21T12:00:11;0.73;;;0.63;;
16093;SDS011;8151;47.824;12.092;2023-11-21T12:02:44;5.07;;;1.00;;
16093;SDS011;8151;47.824;12.092;2023-11-21T12:05:16;2.20;;;0.67;;
16093;SDS011;8151;47.824;12.092;2023-11-21T12:07:46;1.20;;;0.60;;
16093;SDS011;8151;47.824;12.092;2023-11-21T12:10:17;0.40;;;0.30;;
16093;SDS011;8151;47.824;12.092;2023-11-21T12:12:47;1.53;;;0.57;;
16093;SDS011;8151;47.824;12.092;2023-11-21T12:15:16;0.97;;;0.43;;
16093;SDS011;8151;47.824;12.092;2023-11-21T12:17:45;2.70;;;1.00;;
16093;SDS011;8151;47.824;12.092;2023-11-21T12:20:16;0.93;;;0.67;;
16093;SDS011;8151;47.824;12.092;2023-11-21T12:22:47;1.50;;;0.60;;
16093;SDS011;8151;47.824;12.092;2023-11-21T12:25:18;2.33;;;0.90;;
16093;SDS011;8151;47.824;12.092;2023-11-21T12:27:48;2.13;;;0.80;;
16093;SDS011;8151;47.824;12.092;2023-11-21T12:30:18;1.23;;;0.60;;
16093;SDS011;8151;47.824;12.092;2023-11-21T12:32:49;1.97;;;0.67;;
16093;SDS011;8151;47.824;12.092;2023-11-21T12:35:21;2.97;;;1.87;;
16093;SDS011;8151;47.824;12.092;2023-11-21T12:37:52;2.47;;;1.43;;
16093;SDS011;8151;47.824;12.092;2023-11-21T12:40:22;1.00;;;0.70;;
16093;SDS011;8151;47.824;12.092;2023-11-21T12:42:52;2.20;;;0.80;;
16093;SDS011;8151;47.824;12.092;2023-11-21T12:45:22;1.00;;;0.60;;
16093;SDS011;8151;47.824;12.092;2023-11-21T12:47:54;2.43;;;1.30;;
16093;SDS011;8151;47.824;12.092;2023-11-21T12:50:29;0.40;;;0.40;;
16093;SDS011;8151;47.824;12.092;2023-11-21T12:53:01;0.93;;;0.73;;
16093;SDS011;8151;47.824;12.092;2023-11-21T12:55:32;2.37;;;0.83;;
16093;SDS011;8151;47.824;12.092;2023-11-21T12:58:06;0.40;;;0.40;;
16093;SDS011;8151;47.824;12.092;2023-11-21T13:00:39;1.13;;;0.67;;
16093;SDS011;8151;47.824;12.092;2023-11-21T13:03:11;1.17;;;0.60;;
16093;SDS011;8151;47.824;12.092;2023-11-21T13:05:46;0.93;;;0.53;;
16093;SDS011;8151;47.824;12.092;2023-11-21T13:08:19;0.60;;;0.50;;
16093;SDS011;8151;47.824;12.092;2023-11-21T13:10:51;1.70;;;0.60;;
16093;SDS011;8151;47.824;12.092;2023-11-21T13:13:23;0.50;;;0.37;;
16093;SDS011;8151;47.824;12.092;2023-11-21T13:15:52;1.60;;;0.60;;
16093;SDS011;8151;47.824;12.092;2023-11-21T13:18:24;1.60;;;0.57;;
16093;SDS011;8151;47.824;12.092;2023-11-21T13:20:56;0.60;;;0.60;;
16093;SDS011;8151;47.824;12.092;2023-11-21T13:23:25;0.70;;;0.50;;
16093;SDS011;8151;47.824;12.092;2023-11-21T13:25:56;3.00;;;0.90;;
16093;SDS011;8151;47.824;12.092;2023-11-21T13:28:33;0.87;;;0.80;;
16093;SDS011;8151;47.824;12.092;2023-11-21T13:31:02;0.50;;;0.50;;
16093;SDS011;8151;47.824;12.092;2023-11-21T13:33:38;2.03;;;0.40;;
16093;SDS011;8151;47.824;12.092;2023-11-21T13:36:09;0.73;;;0.60;;
16093;SDS011;8151;47.824;12.092;2023-11-21T13:38:40;1.13;;;0.50;;
16093;SDS011;8151;47.824;12.092;2023-11-21T13:41:11;1.07;;;0.90;;
16093;SDS011;8151;47.824;12.092;2023-11-21T13:43:41;4.20;;;0.87;;
16093;SDS011;8151;47.824;12.092;2023-11-21T13:46:15;1.90;;;0.60;;
16093;SDS011;8151;47.824;12.092;2023-11-21T13:48:49;0.70;;;0.60;;
16093;SDS011;8151;47.824;12.092;2023-11-21T13:51:24;2.30;;;1.07;;
16093;SDS011;8151;47.824;12.092;2023-11-21T13:54:03;2.10;;;0.80;;
16093;SDS011;8151;47.824;12.092;2023-11-21T13:56:36;4.80;;;2.50;;
16093;SDS011;8151;47.824;12.092;2023-11-21T13:59:07;1.73;;;1.07;;
16093;SDS011;8151;47.824;12.092;2023-11-21T14:01:45;1.27;;;1.10;;
16093;SDS011;8151;47.824;12.092;2023-11-21T14:04:23;1.33;;;1.20;;
16093;SDS011;8151;47.824;12.092;2023-11-21T14:07:22;4.73;;;2.17;;
16093;SDS011;8151;47.824;12.092;2023-11-21T14:09:59;4.33;;;2.10;;
16093;SDS011;8151;47.824;12.092;2023-11-21T14:12:28;2.47;;;2.00;;
16093;SDS011;8151;47.824;12.092;2023-11-21T14:15:04;2.87;;;1.57;;
16093;SDS011;8151;47.824;12.092;2023-11-21T14:17:36;1.03;;;1.03;;
16093;SDS011;8151;47.824;12.092;2023-11-21T14:20:09;1.73;;;0.63;;
16093;SDS011;8151;47.824;12.092;2023-11-21T14:22:45;0.47;;;0.47;;
16093;SDS011;8151;47.824;12.092;2023-11-21T14:25:14;1.37;;;0.70;;
16093;SDS011;8151;47.824;12.092;2023-11-21T14:27:45;0.50;;;0.50;;
16093;SDS011;8151;47.824;12.092;2023-11-21T14:30:13;0.90;;;0.90;;
16093;SDS011;8151;47.824;12.092;2023-11-21T14:32:45;1.43;;;1.13;;
16093;SDS011;8151;47.824;12.092;2023-11-21T14:35:14;0.70;;;0.70;;
16093;SDS011;8151;47.824;12.092;2023-11-21T14:37:43;0.70;;;0.70;;
16093;SDS011;8151;47.824;12.092;2023-11-21T14:40:13;0.93;;;0.60;;
16093;SDS011;8151;47.824;12.092;2023-11-21T14:42:48;0.60;;;0.60;;
16093;SDS011;8151;47.824;12.092;2023-11-21T14:45:21;1.23;;;1.13;;
16093;SDS011;8151;47.824;12.092;2023-11-21T14:47:52;1.27;;;0.97;;
16093;SDS011;8151;47.824;12.092;2023-11-21T14:50:33;1.37;;;1.27;;
16093;SDS011;8151;47.824;12.092;2023-11-21T14:53:39;3.73;;;2.00;;
16093;SDS011;8151;47.824;12.092;2023-11-21T14:56:20;6.93;;;3.60;;
16093;SDS011;8151;47.824;12.092;2023-11-21T14:58:54;6.43;;;4.70;;
16093;SDS011;8151;47.824;12.092;2023-11-21T15:01:23;3.80;;;2.90;;
16093;SDS011;8151;47.824;12.092;2023-11-21T15:04:09;1.10;;;0.83;;
16093;SDS011;8151;47.824;12.092;2023-11-21T15:06:47;1.63;;;1.20;;
16093;SDS011;8151;47.824;12.092;2023-11-21T15:09:17;1.43;;;1.10;;